createdAt,value
2019-03-24T00:01:24.955Z,8.20
2019-03-24T00:05:30.367Z,7.00
2019-03-24T00:09:35.904Z,7.30
2019-03-24T00:13:41.348Z,6.20
2019-03-24T00:17:46.930Z,6.87
2019-03-24T00:21:52.365Z,6.33
2019-03-24T00:25:57.804Z,6.60
2019-03-24T00:30:03.506Z,4.73
2019-03-24T00:34:08.909Z,5.40
2019-03-24T00:38:14.806Z,6.20
2019-03-24T00:42:20.272Z,7.03
2019-03-24T00:46:25.824Z,6.10
2019-03-24T00:50:31.635Z,6.47
2019-03-24T00:54:37.326Z,8.57
2019-03-24T00:58:43.014Z,5.60
2019-03-24T01:02:48.423Z,7.33
2019-03-24T01:06:54.790Z,6.13
2019-03-24T01:11:00.299Z,5.20
2019-03-24T01:15:06.886Z,5.97
2019-03-24T01:19:12.483Z,5.60
2019-03-24T01:23:18.103Z,5.10
2019-03-24T01:27:23.557Z,6.40
2019-03-24T01:31:29.173Z,5.27
2019-03-24T01:35:34.779Z,6.10
2019-03-24T01:39:40.215Z,5.83
2019-03-24T01:43:46.690Z,5.87
2019-03-24T01:47:52.139Z,6.30
2019-03-24T01:51:57.612Z,5.43
2019-03-24T01:56:03.045Z,6.60
2019-03-24T02:00:09.261Z,6.37
2019-03-24T02:04:15.051Z,6.23
2019-03-24T02:08:20.457Z,5.77
2019-03-24T02:12:26.045Z,4.90
2019-03-24T02:16:31.806Z,6.00
2019-03-24T02:20:37.262Z,6.27
2019-03-24T02:24:42.823Z,6.00
2019-03-24T02:28:48.259Z,5.77
2019-03-24T02:32:54.081Z,4.93
2019-03-24T02:36:59.486Z,6.00
2019-03-24T02:41:05.129Z,4.57
2019-03-24T02:45:10.928Z,6.03
2019-03-24T02:49:16.354Z,6.20
2019-03-24T02:53:21.829Z,5.63
2019-03-24T02:57:27.500Z,5.30
2019-03-24T03:01:32.947Z,6.40
2019-03-24T03:05:38.504Z,5.77
2019-03-24T03:09:43.960Z,6.73
2019-03-24T03:13:49.534Z,5.97
2019-03-24T03:17:54.985Z,6.43
2019-03-24T03:22:00.383Z,6.63
2019-03-24T03:26:05.995Z,5.33
2019-03-24T03:30:12.357Z,5.30
2019-03-24T03:34:17.793Z,6.27
2019-03-24T03:38:23.626Z,5.17
2019-03-24T03:42:29.122Z,6.70
2019-03-24T03:46:34.669Z,5.77
2019-03-24T03:50:40.445Z,6.27
2019-03-24T03:54:45.900Z,5.50
2019-03-24T03:58:51.433Z,6.47
2019-03-24T04:02:56.866Z,7.93
2019-03-24T04:07:02.422Z,5.70
2019-03-24T04:11:07.958Z,6.07
2019-03-24T04:15:13.655Z,6.73
2019-03-24T04:19:19.201Z,6.07
2019-03-24T04:23:24.784Z,6.47
2019-03-24T04:27:30.218Z,4.87
2019-03-24T04:31:36.096Z,7.20
2019-03-24T04:35:41.678Z,6.90
2019-03-24T04:39:47.107Z,6.97
2019-03-24T04:43:52.750Z,6.27
2019-03-24T04:47:58.197Z,6.00
2019-03-24T04:52:04.808Z,6.30
2019-03-24T04:56:10.237Z,5.43
2019-03-24T05:00:18.811Z,6.13
2019-03-24T05:04:24.323Z,6.63
2019-03-24T05:08:30.808Z,6.23
2019-03-24T05:12:36.406Z,6.20
2019-03-24T05:16:41.881Z,5.47
2019-03-24T05:20:47.737Z,6.10
2019-03-24T05:24:53.386Z,5.60
2019-03-24T05:28:58.813Z,6.60
2019-03-24T05:33:04.387Z,6.10
2019-03-24T05:37:09.800Z,7.13
2019-03-24T05:41:15.713Z,6.40
2019-03-24T05:45:21.146Z,7.20
2019-03-24T05:49:26.729Z,5.73
2019-03-24T05:53:32.138Z,6.40
2019-03-24T05:57:37.777Z,6.70
2019-03-24T06:01:45.711Z,6.67
2019-03-24T06:05:51.541Z,6.10
2019-03-24T06:09:57.225Z,6.87
2019-03-24T06:14:03.360Z,8.00
2019-03-24T06:18:09.291Z,6.67
2019-03-24T06:22:14.790Z,6.50
2019-03-24T06:26:20.497Z,6.90
2019-03-24T06:30:26.027Z,7.83
2019-03-24T06:34:31.627Z,7.00
2019-03-24T06:38:37.090Z,6.40
2019-03-24T06:42:42.584Z,7.80
2019-03-24T06:46:48.178Z,9.50
2019-03-24T06:50:53.588Z,8.30
2019-03-24T06:54:59.049Z,8.13
2019-03-24T06:59:04.630Z,7.57
2019-03-24T07:03:10.131Z,8.13
2019-03-24T07:07:15.623Z,8.00
2019-03-24T07:11:21.119Z,5.80
2019-03-24T07:15:26.593Z,7.13
2019-03-24T07:19:32.130Z,5.93
2019-03-24T07:23:37.562Z,6.67
2019-03-24T07:27:43.123Z,6.67
2019-03-24T07:31:48.712Z,5.30
2019-03-24T07:35:54.504Z,4.90
2019-03-24T07:40:00.245Z,4.70
2019-03-24T07:44:06.010Z,5.80
2019-03-24T07:48:19.003Z,4.70
2019-03-24T07:52:18.734Z,4.23
2019-03-24T07:56:24.403Z,4.43
2019-03-24T08:00:39.807Z,3.73
2019-03-24T08:04:45.589Z,4.57
2019-03-24T08:08:51.099Z,5.80
2019-03-24T08:12:56.759Z,6.00
2019-03-24T08:17:02.292Z,5.20
2019-03-24T08:21:07.778Z,4.10
2019-03-24T08:25:13.311Z,4.77
2019-03-24T08:29:18.914Z,4.53
2019-03-24T08:33:24.362Z,5.20
2019-03-24T08:37:29.901Z,4.90
2019-03-24T08:41:35.457Z,5.30
2019-03-24T08:45:41.046Z,5.50
2019-03-24T08:49:46.854Z,5.97
2019-03-24T08:53:52.392Z,5.00
2019-03-24T08:57:57.927Z,5.70
2019-03-24T09:02:03.452Z,5.47
2019-03-24T09:06:09.859Z,5.70
2019-03-24T09:10:15.798Z,5.50
2019-03-24T09:14:21.336Z,6.70
2019-03-24T09:18:26.952Z,5.83
2019-03-24T09:22:32.369Z,6.13
2019-03-24T09:26:37.768Z,6.37
2019-03-24T09:30:43.339Z,6.07
2019-03-24T09:34:48.800Z,6.53
2019-03-24T09:38:54.268Z,6.53
2019-03-24T09:43:01.155Z,7.87
2019-03-24T09:47:06.744Z,7.77
2019-03-24T09:51:12.914Z,6.83
2019-03-24T09:55:18.458Z,7.10
2019-03-24T09:59:23.880Z,7.70
2019-03-24T10:03:29.360Z,6.93
2019-03-24T10:07:34.972Z,8.80
2019-03-24T10:11:40.422Z,7.03
2019-03-24T10:15:45.991Z,6.97
2019-03-24T10:19:51.542Z,7.73
2019-03-24T10:23:57.093Z,6.97
2019-03-24T10:28:02.703Z,6.50
2019-03-24T10:32:08.174Z,6.53
2019-03-24T10:36:13.645Z,6.72
2019-03-24T10:40:28.155Z,6.70
2019-03-24T10:44:26.783Z,6.60
2019-03-24T10:48:33.828Z,6.63
2019-03-24T10:52:40.979Z,5.43
2019-03-24T10:56:46.422Z,7.53
2019-03-24T11:00:51.858Z,5.50
2019-03-24T11:04:58.463Z,6.93
2019-03-24T11:09:04.664Z,6.10
2019-03-24T11:13:10.170Z,6.47
2019-03-24T11:17:15.879Z,6.07
2019-03-24T11:21:22.037Z,5.80
2019-03-24T11:25:28.383Z,6.27
2019-03-24T11:29:35.297Z,6.50
2019-03-24T11:33:40.710Z,5.23
2019-03-24T11:37:46.290Z,6.27
2019-03-24T11:41:55.473Z,6.43
2019-03-24T11:46:01.130Z,6.73
2019-03-24T11:50:07.107Z,6.00
2019-03-24T11:54:12.657Z,5.23
2019-03-24T11:58:18.739Z,5.60
2019-03-24T12:02:26.086Z,6.60
2019-03-24T12:06:31.554Z,6.03
2019-03-24T12:10:37.328Z,6.20
2019-03-24T12:14:42.908Z,6.30
2019-03-24T12:18:48.318Z,5.33
2019-03-24T12:22:53.759Z,5.90
2019-03-24T12:26:59.292Z,5.57
2019-03-24T12:31:04.880Z,6.03
2019-03-24T12:35:13.372Z,5.00
2019-03-24T12:39:19.611Z,4.53
2019-03-24T12:43:25.073Z,5.00
2019-03-24T12:47:30.885Z,4.80
2019-03-24T12:51:36.430Z,5.10
2019-03-24T12:55:41.889Z,6.80
2019-03-24T12:59:47.320Z,5.40
2019-03-24T13:03:52.733Z,4.43
2019-03-24T13:08:01.389Z,5.07
2019-03-24T13:12:06.929Z,4.90
2019-03-24T13:16:12.570Z,4.30
2019-03-24T13:20:26.812Z,4.50
2019-03-24T13:24:25.193Z,5.00
2019-03-24T13:28:30.680Z,4.27
2019-03-24T13:32:36.574Z,5.10
2019-03-24T13:36:42.342Z,3.80
2019-03-24T13:40:47.814Z,4.50
2019-03-24T13:44:53.443Z,4.13
2019-03-24T13:48:58.861Z,4.60
2019-03-24T13:53:04.788Z,4.00
2019-03-24T13:57:10.224Z,3.17
2019-03-24T14:01:15.994Z,3.70
2019-03-24T14:05:21.640Z,3.70
2019-03-24T14:09:27.066Z,4.23
2019-03-24T14:13:32.521Z,3.93
2019-03-24T14:17:38.008Z,4.10
2019-03-24T14:21:43.517Z,3.67
2019-03-24T14:25:49.083Z,3.40
2019-03-24T14:29:54.870Z,4.40
2019-03-24T14:34:00.601Z,3.90
2019-03-24T14:38:06.402Z,3.80
2019-03-24T14:42:11.818Z,3.60
2019-03-24T14:46:17.308Z,4.03
2019-03-24T14:50:22.857Z,3.90
2019-03-24T14:54:28.313Z,4.20
2019-03-24T14:58:34.365Z,3.70
2019-03-24T15:02:40.917Z,4.03
2019-03-24T15:06:46.633Z,4.43
2019-03-24T15:10:52.283Z,3.73
2019-03-24T15:14:58.080Z,4.10
2019-03-24T15:19:03.506Z,3.80
2019-03-24T15:23:09.044Z,4.73
2019-03-24T15:27:14.470Z,4.30
2019-03-24T15:31:20.094Z,3.70
2019-03-24T15:35:25.563Z,4.33
2019-03-24T15:39:31.206Z,4.80
2019-03-24T15:43:36.723Z,4.57
2019-03-24T15:47:42.234Z,6.30
2019-03-24T15:51:47.922Z,4.73
2019-03-24T15:55:53.691Z,4.20
2019-03-24T15:59:59.267Z,4.63
2019-03-24T16:04:04.790Z,4.30
2019-03-24T16:08:11.381Z,4.73
2019-03-24T16:12:16.822Z,3.70
2019-03-24T16:16:23.157Z,3.50
2019-03-24T16:20:29.419Z,3.23
2019-03-24T16:24:34.946Z,3.20
2019-03-24T16:28:40.427Z,2.87
2019-03-24T16:32:45.964Z,2.73
2019-03-24T16:36:51.438Z,3.37
2019-03-24T16:40:57.279Z,3.10
2019-03-24T16:45:03.005Z,3.13
2019-03-24T16:49:08.484Z,2.77
2019-03-24T16:53:14.012Z,3.23
2019-03-24T16:57:19.472Z,3.97
2019-03-24T17:01:25.078Z,3.83
2019-03-24T17:05:30.688Z,3.70
2019-03-24T17:09:36.200Z,3.30
2019-03-24T17:13:41.691Z,3.00
2019-03-24T17:17:48.823Z,3.37
2019-03-24T17:21:55.114Z,3.50
2019-03-24T17:26:01.236Z,4.20
2019-03-24T17:30:11.129Z,4.43
2019-03-24T17:34:16.639Z,4.10
2019-03-24T17:38:22.171Z,4.07
2019-03-24T17:42:27.595Z,3.37
2019-03-24T17:46:34.087Z,3.60
2019-03-24T17:50:39.659Z,3.90
2019-03-24T17:54:45.342Z,4.07
2019-03-24T17:58:50.793Z,3.60
2019-03-24T18:02:56.406Z,3.93
2019-03-24T18:07:02.157Z,3.93
2019-03-24T18:11:07.709Z,3.60
2019-03-24T18:15:13.499Z,4.57
2019-03-24T18:19:19.079Z,4.83
2019-03-24T18:23:24.691Z,5.13
2019-03-24T18:27:30.289Z,6.10
2019-03-24T18:31:35.712Z,5.37
2019-03-24T18:35:41.354Z,6.13
2019-03-24T18:39:46.804Z,5.77
2019-03-24T18:43:52.308Z,6.00
2019-03-24T18:47:57.822Z,7.67
2019-03-24T18:52:03.340Z,6.57
2019-03-24T18:56:08.940Z,8.50
2019-03-24T19:00:15.255Z,5.67
2019-03-24T19:04:21.142Z,5.30
2019-03-24T19:08:26.592Z,5.57
2019-03-24T19:12:32.058Z,5.67
2019-03-24T19:16:38.734Z,5.13
2019-03-24T19:20:44.178Z,5.07
2019-03-24T19:25:00.804Z,6.45
2019-03-24T19:29:06.313Z,5.60
2019-03-24T19:33:11.898Z,5.53
2019-03-24T19:37:18.379Z,4.77
2019-03-24T19:41:29.907Z,4.50
2019-03-24T19:45:36.442Z,4.37
2019-03-24T19:49:42.411Z,5.90
2019-03-24T19:53:48.325Z,5.10
2019-03-24T19:58:04.881Z,5.07
2019-03-24T20:02:10.333Z,4.90
2019-03-24T20:06:16.189Z,4.87
2019-03-24T20:10:24.167Z,5.00
2019-03-24T20:14:32.051Z,5.30
2019-03-24T20:18:37.538Z,4.73
2019-03-24T20:22:43.046Z,5.50
2019-03-24T20:26:49.634Z,5.30
2019-03-24T20:30:57.405Z,5.40
2019-03-24T20:35:02.898Z,5.47
2019-03-24T20:39:14.669Z,6.00
2019-03-24T20:43:20.237Z,6.37
2019-03-24T20:47:26.189Z,6.30
2019-03-24T20:51:31.651Z,5.50
2019-03-24T20:55:39.198Z,5.67
2019-03-24T20:59:44.767Z,6.00
2019-03-24T21:03:50.187Z,5.73
2019-03-24T21:07:55.633Z,6.27
2019-03-24T21:12:03.222Z,5.37
2019-03-24T21:16:17.588Z,6.00
2019-03-24T21:20:23.456Z,5.80
2019-03-24T21:24:28.885Z,6.27
2019-03-24T21:28:34.474Z,5.53
2019-03-24T21:32:40.233Z,5.50
2019-03-24T21:36:45.703Z,5.80
2019-03-24T21:40:51.284Z,5.20
2019-03-24T21:44:56.837Z,4.60
2019-03-24T21:49:02.300Z,5.17
2019-03-24T21:53:40.342Z,5.67
2019-03-24T21:57:41.768Z,5.90
2019-03-24T22:01:57.952Z,6.80
2019-03-24T22:06:10.149Z,4.93
2019-03-24T22:10:21.386Z,5.70
2019-03-24T22:14:27.003Z,6.07
2019-03-24T22:18:32.436Z,5.33
2019-03-24T22:22:39.822Z,6.80
2019-03-24T22:26:46.793Z,6.00
2019-03-24T22:30:52.268Z,6.00
2019-03-24T22:34:57.851Z,6.30
2019-03-24T22:39:04.208Z,7.07
2019-03-24T22:43:09.675Z,6.20
2019-03-24T22:47:15.258Z,7.83
2019-03-24T22:51:20.706Z,8.10
2019-03-24T22:55:26.179Z,7.90
2019-03-24T22:59:32.071Z,7.60
2019-03-24T23:03:37.661Z,6.67
2019-03-24T23:07:43.240Z,7.87
2019-03-24T23:11:48.698Z,7.53
2019-03-24T23:15:54.150Z,8.97
2019-03-24T23:19:59.958Z,8.57
2019-03-24T23:24:15.498Z,8.70
2019-03-24T23:28:14.627Z,8.70
2019-03-24T23:32:20.089Z,8.90
2019-03-24T23:36:27.902Z,8.90
2019-03-24T23:40:33.391Z,8.00
2019-03-24T23:44:39.045Z,9.27
2019-03-24T23:48:44.495Z,7.37
2019-03-24T23:52:49.927Z,9.70
2019-03-24T23:56:57.230Z,8.03
